sensor_id;sensor_type;location;lat;lon;timestamp;pressure;altitude;pressure_sealevel;temperature;humidity
50226;BME280;36113;50.742;6.432;2023-04-03T00:01:28;112741.81;;;-145.50;85.36
50226;BME280;36113;50.742;6.432;2023-04-03T00:03:53;112741.81;;;-145.50;85.67
50226;BME280;36113;50.742;6.432;2023-04-03T00:06:19;112741.81;;;-145.50;85.76
50226;BME280;36113;50.742;6.432;2023-04-03T00:08:45;112741.81;;;-145.50;86.63
50226;BME280;36113;50.742;6.432;2023-04-03T00:11:10;112741.81;;;-145.50;87.43
50226;BME280;36113;50.742;6.432;2023-04-03T00:13:37;112741.81;;;-145.50;87.73
50226;BME280;36113;50.742;6.432;2023-04-03T00:16:03;112741.81;;;-145.50;86.41
50226;BME280;36113;50.742;6.432;2023-04-03T00:18:29;112741.81;;;-145.50;86.62
50226;BME280;36113;50.742;6.432;2023-04-03T00:20:54;112741.81;;;-145.50;87.39
50226;BME280;36113;50.742;6.432;2023-04-03T00:23:20;112741.81;;;-145.50;87.80
50226;BME280;36113;50.742;6.432;2023-04-03T00:25:45;112741.81;;;-145.50;88.21
50226;BME280;36113;50.742;6.432;2023-04-03T00:28:11;112741.81;;;-145.50;88.87
50226;BME280;36113;50.742;6.432;2023-04-03T00:30:36;112741.81;;;-145.50;89.25
50226;BME280;36113;50.742;6.432;2023-04-03T00:33:02;112741.81;;;-145.50;89.53
50226;BME280;36113;50.742;6.432;2023-04-03T00:35:28;112741.81;;;-145.50;89.31
50226;BME280;36113;50.742;6.432;2023-04-03T00:37:54;112741.81;;;-145.50;89.74
50226;BME280;36113;50.742;6.432;2023-04-03T00:40:23;112741.81;;;-145.50;90.23
50226;BME280;36113;50.742;6.432;2023-04-03T00:42:52;112741.81;;;-145.50;90.18
50226;BME280;36113;50.742;6.432;2023-04-03T00:45:31;112741.81;;;-145.50;90.95
50226;BME280;36113;50.742;6.432;2023-04-03T00:47:57;112741.81;;;-145.50;90.71
50226;BME280;36113;50.742;6.432;2023-04-03T00:50:26;112741.81;;;-145.50;90.34
50226;BME280;36113;50.742;6.432;2023-04-03T00:52:51;112741.81;;;-145.50;89.96
50226;BME280;36113;50.742;6.432;2023-04-03T00:55:17;112741.81;;;-145.50;90.40
50226;BME280;36113;50.742;6.432;2023-04-03T00:57:43;112741.81;;;-145.50;90.88
50226;BME280;36113;50.742;6.432;2023-04-03T01:00:11;112741.81;;;-145.50;90.63
50226;BME280;36113;50.742;6.432;2023-04-03T01:02:37;112741.81;;;-145.50;90.28
50226;BME280;36113;50.742;6.432;2023-04-03T01:05:05;112741.81;;;-145.50;90.74
50226;BME280;36113;50.742;6.432;2023-04-03T01:07:31;112741.81;;;-145.50;91.54
50226;BME280;36113;50.742;6.432;2023-04-03T01:10:01;112741.81;;;-145.50;91.45
50226;BME280;36113;50.742;6.432;2023-04-03T01:12:42;112741.81;;;-145.50;91.29
50226;BME280;36113;50.742;6.432;2023-04-03T01:25:36;112741.81;;;-145.50;87.29
50226;BME280;36113;50.742;6.432;2023-04-03T01:28:03;112741.81;;;-145.50;88.12
50226;BME280;36113;50.742;6.432;2023-04-03T01:30:33;112741.81;;;-145.50;87.40
50226;BME280;36113;50.742;6.432;2023-04-03T01:33:00;112741.81;;;-145.50;88.42
50226;BME280;36113;50.742;6.432;2023-04-03T01:35:26;112741.81;;;-145.50;89.11
50226;BME280;36113;50.742;6.432;2023-04-03T01:37:51;112741.81;;;-145.50;89.46
50226;BME280;36113;50.742;6.432;2023-04-03T01:40:17;112741.81;;;-145.50;89.72
50226;BME280;36113;50.742;6.432;2023-04-03T01:42:42;112741.81;;;-145.50;88.92
50226;BME280;36113;50.742;6.432;2023-04-03T01:45:08;112741.81;;;-145.50;89.37
50226;BME280;36113;50.742;6.432;2023-04-03T01:47:33;112741.81;;;-145.50;88.39
50226;BME280;36113;50.742;6.432;2023-04-03T01:49:59;112741.81;;;-145.50;88.86
50226;BME280;36113;50.742;6.432;2023-04-03T01:52:24;112741.81;;;-145.50;88.13
50226;BME280;36113;50.742;6.432;2023-04-03T01:54:49;112741.81;;;-145.50;88.17
50226;BME280;36113;50.742;6.432;2023-04-03T01:57:16;112741.81;;;-145.50;87.72
50226;BME280;36113;50.742;6.432;2023-04-03T01:59:41;112741.81;;;-145.50;88.55
50226;BME280;36113;50.742;6.432;2023-04-03T02:02:07;112741.81;;;-145.50;89.15
50226;BME280;36113;50.742;6.432;2023-04-03T02:04:32;112741.81;;;-145.50;89.70
50226;BME280;36113;50.742;6.432;2023-04-03T02:06:57;112741.81;;;-145.50;90.10
50226;BME280;36113;50.742;6.432;2023-04-03T02:09:23;112741.81;;;-145.50;90.43
50226;BME280;36113;50.742;6.432;2023-04-03T02:11:48;112741.81;;;-145.50;90.53
50226;BME280;36113;50.742;6.432;2023-04-03T02:14:13;112741.81;;;-145.50;91.07
50226;BME280;36113;50.742;6.432;2023-04-03T02:16:39;112741.81;;;-145.50;90.33
50226;BME280;36113;50.742;6.432;2023-04-03T02:19:04;112741.81;;;-145.50;89.88
50226;BME280;36113;50.742;6.432;2023-04-03T02:21:30;112741.81;;;-145.50;90.42
50226;BME280;36113;50.742;6.432;2023-04-03T02:23:55;112741.81;;;-145.50;90.73
50226;BME280;36113;50.742;6.432;2023-04-03T02:26:20;112741.81;;;-145.50;91.47
50226;BME280;36113;50.742;6.432;2023-04-03T02:28:46;112741.81;;;-145.50;91.34
50226;BME280;36113;50.742;6.432;2023-04-03T02:31:12;112741.81;;;-145.50;91.82
50226;BME280;36113;50.742;6.432;2023-04-03T02:33:38;112741.81;;;-145.50;92.26
50226;BME280;36113;50.742;6.432;2023-04-03T02:36:04;112741.81;;;-145.50;92.87
50226;BME280;36113;50.742;6.432;2023-04-03T02:38:30;112741.81;;;-145.50;92.99
50226;BME280;36113;50.742;6.432;2023-04-03T02:41:03;112741.81;;;-145.50;93.07
50226;BME280;36113;50.742;6.432;2023-04-03T02:43:29;112741.81;;;-145.50;93.47
50226;BME280;36113;50.742;6.432;2023-04-03T02:45:54;112741.81;;;-145.50;93.33
50226;BME280;36113;50.742;6.432;2023-04-03T02:48:19;112741.81;;;-145.50;93.84
50226;BME280;36113;50.742;6.432;2023-04-03T02:50:45;112741.81;;;-145.50;93.82
50226;BME280;36113;50.742;6.432;2023-04-03T02:53:10;112741.81;;;-145.50;94.03
50226;BME280;36113;50.742;6.432;2023-04-03T02:55:35;112741.81;;;-145.50;93.97
50226;BME280;36113;50.742;6.432;2023-04-03T02:58:01;112741.81;;;-145.50;94.13
50226;BME280;36113;50.742;6.432;2023-04-03T03:00:26;112741.81;;;-145.50;94.41
50226;BME280;36113;50.742;6.432;2023-04-03T03:02:51;112741.81;;;-145.50;94.57
50226;BME280;36113;50.742;6.432;2023-04-03T03:05:17;112741.81;;;-145.50;94.91
50226;BME280;36113;50.742;6.432;2023-04-03T03:07:42;112741.81;;;-145.50;95.17
50226;BME280;36113;50.742;6.432;2023-04-03T03:10:08;112741.81;;;-145.50;95.47
50226;BME280;36113;50.742;6.432;2023-04-03T03:12:33;112741.81;;;-145.50;95.85
50226;BME280;36113;50.742;6.432;2023-04-03T03:14:58;112741.81;;;-145.50;95.97
50226;BME280;36113;50.742;6.432;2023-04-03T03:17:24;112741.81;;;-145.50;96.28
50226;BME280;36113;50.742;6.432;2023-04-03T03:19:49;112741.81;;;-145.50;96.15
50226;BME280;36113;50.742;6.432;2023-04-03T03:22:16;112741.81;;;-145.50;95.89
50226;BME280;36113;50.742;6.432;2023-04-03T03:24:41;112741.81;;;-145.50;96.26
50226;BME280;36113;50.742;6.432;2023-04-03T03:27:06;112741.81;;;-145.50;96.10
50226;BME280;36113;50.742;6.432;2023-04-03T03:29:32;112741.81;;;-145.50;96.06
50226;BME280;36113;50.742;6.432;2023-04-03T03:31:57;112741.81;;;-145.50;96.33
50226;BME280;36113;50.742;6.432;2023-04-03T03:34:22;112741.81;;;-145.50;96.21
50226;BME280;36113;50.742;6.432;2023-04-03T03:36:48;112741.81;;;-145.50;96.18
50226;BME280;36113;50.742;6.432;2023-04-03T03:39:13;112741.81;;;-145.50;95.64
50226;BME280;36113;50.742;6.432;2023-04-03T03:41:38;112741.81;;;-145.50;94.02
50226;BME280;36113;50.742;6.432;2023-04-03T03:44:04;112741.81;;;-145.50;93.00
50226;BME280;36113;50.742;6.432;2023-04-03T03:46:29;112741.81;;;-145.50;93.03
50226;BME280;36113;50.742;6.432;2023-04-03T03:48:54;112741.81;;;-145.50;93.83
50226;BME280;36113;50.742;6.432;2023-04-03T03:51:20;112741.81;;;-145.50;93.97
50226;BME280;36113;50.742;6.432;2023-04-03T03:53:45;112741.81;;;-145.50;94.25
50226;BME280;36113;50.742;6.432;2023-04-03T03:56:10;112741.81;;;-145.50;94.40
50226;BME280;36113;50.742;6.432;2023-04-03T03:58:36;112741.81;;;-145.50;94.51
50226;BME280;36113;50.742;6.432;2023-04-03T04:01:02;112741.81;;;-145.50;94.61
50226;BME280;36113;50.742;6.432;2023-04-03T04:03:28;112741.81;;;-145.50;95.04
50226;BME280;36113;50.742;6.432;2023-04-03T04:05:54;112741.81;;;-145.50;95.15
50226;BME280;36113;50.742;6.432;2023-04-03T04:08:19;112741.81;;;-145.50;95.37
50226;BME280;36113;50.742;6.432;2023-04-03T04:10:45;112741.81;;;-145.50;95.53
50226;BME280;36113;50.742;6.432;2023-04-03T04:13:10;112741.81;;;-145.50;95.69
50226;BME280;36113;50.742;6.432;2023-04-03T04:15:36;112741.81;;;-145.50;95.85
50226;BME280;36113;50.742;6.432;2023-04-03T04:18:01;112741.81;;;-145.50;95.95
50226;BME280;36113;50.742;6.432;2023-04-03T04:20:27;112741.81;;;-145.50;96.20
50226;BME280;36113;50.742;6.432;2023-04-03T04:22:52;112741.81;;;-145.50;96.56
50226;BME280;36113;50.742;6.432;2023-04-03T04:25:17;112741.81;;;-145.50;96.36
50226;BME280;36113;50.742;6.432;2023-04-03T04:27:43;112741.81;;;-145.50;94.80
50226;BME280;36113;50.742;6.432;2023-04-03T04:30:08;112741.81;;;-145.50;94.94
50226;BME280;36113;50.742;6.432;2023-04-03T04:32:34;112741.81;;;-145.50;95.03
50226;BME280;36113;50.742;6.432;2023-04-03T04:35:00;112741.81;;;-145.50;95.05
50226;BME280;36113;50.742;6.432;2023-04-03T04:37:26;112741.81;;;-145.50;95.33
50226;BME280;36113;50.742;6.432;2023-04-03T04:39:51;112741.81;;;-145.50;95.58
50226;BME280;36113;50.742;6.432;2023-04-03T04:42:16;112741.81;;;-145.50;95.89
50226;BME280;36113;50.742;6.432;2023-04-03T04:44:42;112741.81;;;-145.50;96.29
50226;BME280;36113;50.742;6.432;2023-04-03T04:47:07;112741.81;;;-145.50;96.27
50226;BME280;36113;50.742;6.432;2023-04-03T04:49:32;112741.81;;;-145.50;96.34
50226;BME280;36113;50.742;6.432;2023-04-03T04:51:58;112741.81;;;-145.50;96.79
50226;BME280;36113;50.742;6.432;2023-04-03T04:54:23;112741.81;;;-145.50;96.83
50226;BME280;36113;50.742;6.432;2023-04-03T04:56:48;112741.81;;;-145.50;96.85
50226;BME280;36113;50.742;6.432;2023-04-03T04:59:13;112741.81;;;-145.50;96.37
50226;BME280;36113;50.742;6.432;2023-04-03T05:01:39;112741.81;;;-145.50;95.59
50226;BME280;36113;50.742;6.432;2023-04-03T05:04:04;112741.81;;;-145.50;94.52
50226;BME280;36113;50.742;6.432;2023-04-03T05:06:30;112741.81;;;-145.50;94.35
50226;BME280;36113;50.742;6.432;2023-04-03T05:08:57;112741.81;;;-145.50;94.97
50226;BME280;36113;50.742;6.432;2023-04-03T05:11:22;112741.81;;;-145.50;95.35
50226;BME280;36113;50.742;6.432;2023-04-03T05:13:48;112741.81;;;-145.50;95.93
50226;BME280;36113;50.742;6.432;2023-04-03T05:16:13;112741.81;;;-145.50;95.68
50226;BME280;36113;50.742;6.432;2023-04-03T05:18:38;112741.81;;;-145.50;95.91
50226;BME280;36113;50.742;6.432;2023-04-03T05:21:04;112741.81;;;-145.50;95.99
50226;BME280;36113;50.742;6.432;2023-04-03T05:23:29;112741.81;;;-145.50;96.18
50226;BME280;36113;50.742;6.432;2023-04-03T05:25:55;112741.81;;;-145.50;96.49
50226;BME280;36113;50.742;6.432;2023-04-03T05:28:20;112741.81;;;-145.50;96.72
50226;BME280;36113;50.742;6.432;2023-04-03T05:30:52;112741.81;;;-145.50;96.66
50226;BME280;36113;50.742;6.432;2023-04-03T05:33:19;112741.81;;;-145.50;96.22
50226;BME280;36113;50.742;6.432;2023-04-03T05:35:44;112741.81;;;-145.50;96.20
50226;BME280;36113;50.742;6.432;2023-04-03T05:38:09;112741.81;;;-145.50;96.19
50226;BME280;36113;50.742;6.432;2023-04-03T05:40:35;112741.81;;;-145.50;96.06
50226;BME280;36113;50.742;6.432;2023-04-03T05:43:00;112741.81;;;-145.50;95.77
50226;BME280;36113;50.742;6.432;2023-04-03T05:45:25;112741.81;;;-145.50;95.98
50226;BME280;36113;50.742;6.432;2023-04-03T05:47:51;112741.81;;;-145.50;95.29
50226;BME280;36113;50.742;6.432;2023-04-03T05:50:16;112741.81;;;-145.50;94.57
50226;BME280;36113;50.742;6.432;2023-04-03T05:52:44;112741.81;;;-145.50;94.44
50226;BME280;36113;50.742;6.432;2023-04-03T05:55:10;112741.81;;;-145.50;94.37
50226;BME280;36113;50.742;6.432;2023-04-03T05:57:36;112741.81;;;-145.50;94.08
50226;BME280;36113;50.742;6.432;2023-04-03T06:00:03;112741.81;;;-145.50;93.76
50226;BME280;36113;50.742;6.432;2023-04-03T06:02:28;112741.81;;;-145.50;93.36
50226;BME280;36113;50.742;6.432;2023-04-03T06:04:53;112741.81;;;-145.50;91.43
50226;BME280;36113;50.742;6.432;2023-04-03T06:07:21;112741.81;;;-145.50;90.97
50226;BME280;36113;50.742;6.432;2023-04-03T06:09:49;112741.81;;;-145.50;90.83
50226;BME280;36113;50.742;6.432;2023-04-03T06:12:14;112741.81;;;-145.50;90.52
50226;BME280;36113;50.742;6.432;2023-04-03T06:14:40;112741.81;;;-145.50;90.44
50226;BME280;36113;50.742;6.432;2023-04-03T06:17:06;112741.81;;;-145.50;90.09
50226;BME280;36113;50.742;6.432;2023-04-03T06:19:32;112741.81;;;-145.50;90.23
50226;BME280;36113;50.742;6.432;2023-04-03T06:21:57;112741.81;;;-145.50;89.62
50226;BME280;36113;50.742;6.432;2023-04-03T06:24:23;112741.81;;;-145.50;89.24
50226;BME280;36113;50.742;6.432;2023-04-03T06:43:37;112741.81;;;-145.50;87.41
50226;BME280;36113;50.742;6.432;2023-04-03T06:46:03;112741.81;;;-145.50;85.68
50226;BME280;36113;50.742;6.432;2023-04-03T06:48:28;112741.81;;;-145.50;85.93
50226;BME280;36113;50.742;6.432;2023-04-03T06:50:54;112741.81;;;-145.50;85.93
50226;BME280;36113;50.742;6.432;2023-04-03T06:53:20;112741.81;;;-145.50;84.56
50226;BME280;36113;50.742;6.432;2023-04-03T06:55:45;112741.81;;;-145.50;85.87
50226;BME280;36113;50.742;6.432;2023-04-03T06:58:11;112741.81;;;-145.50;85.92
50226;BME280;36113;50.742;6.432;2023-04-03T07:00:37;112741.81;;;-145.50;85.17
50226;BME280;36113;50.742;6.432;2023-04-03T07:03:02;112741.81;;;-145.50;84.98
50226;BME280;36113;50.742;6.432;2023-04-03T07:05:27;112741.81;;;-145.50;84.97
50226;BME280;36113;50.742;6.432;2023-04-03T07:07:53;112741.81;;;-145.50;84.64
50226;BME280;36113;50.742;6.432;2023-04-03T07:10:18;112741.81;;;-145.50;83.81
50226;BME280;36113;50.742;6.432;2023-04-03T07:12:44;112741.81;;;-145.50;83.93
50226;BME280;36113;50.742;6.432;2023-04-03T07:15:10;112741.81;;;-145.50;84.29
50226;BME280;36113;50.742;6.432;2023-04-03T07:17:37;112741.81;;;-145.50;83.64
50226;BME280;36113;50.742;6.432;2023-04-03T07:20:03;112741.81;;;-145.50;82.66
50226;BME280;36113;50.742;6.432;2023-04-03T07:22:29;112741.81;;;-145.50;82.04
50226;BME280;36113;50.742;6.432;2023-04-03T07:24:54;112741.81;;;-145.50;80.52
50226;BME280;36113;50.742;6.432;2023-04-03T07:27:19;112741.81;;;-145.50;78.66
50226;BME280;36113;50.742;6.432;2023-04-03T07:29:45;112741.81;;;-145.50;79.08
50226;BME280;36113;50.742;6.432;2023-04-03T07:32:10;112741.81;;;-145.50;79.98
50226;BME280;36113;50.742;6.432;2023-04-03T07:34:36;112741.81;;;-145.50;79.41
50226;BME280;36113;50.742;6.432;2023-04-03T07:37:02;112741.81;;;-145.50;79.56
50226;BME280;36113;50.742;6.432;2023-04-03T07:39:28;112741.81;;;-145.50;76.71
50226;BME280;36113;50.742;6.432;2023-04-03T07:41:53;112741.81;;;-145.50;78.17
50226;BME280;36113;50.742;6.432;2023-04-03T07:44:20;112741.81;;;-145.50;75.99
50226;BME280;36113;50.742;6.432;2023-04-03T07:46:46;112741.81;;;-145.50;78.09
50226;BME280;36113;50.742;6.432;2023-04-03T07:49:12;112741.81;;;-145.50;78.63
50226;BME280;36113;50.742;6.432;2023-04-03T07:51:37;112741.81;;;-145.50;77.70
50226;BME280;36113;50.742;6.432;2023-04-03T07:54:03;112741.81;;;-145.50;77.89
50226;BME280;36113;50.742;6.432;2023-04-03T07:56:29;112741.81;;;-145.50;77.63
50226;BME280;36113;50.742;6.432;2023-04-03T07:58:54;112741.81;;;-145.50;76.09
50226;BME280;36113;50.742;6.432;2023-04-03T08:01:19;112741.81;;;-145.50;75.08
50226;BME280;36113;50.742;6.432;2023-04-03T08:03:45;112741.81;;;-145.50;74.86
50226;BME280;36113;50.742;6.432;2023-04-03T08:19:40;112741.81;;;-145.50;77.95
50226;BME280;36113;50.742;6.432;2023-04-03T08:22:05;112741.81;;;-145.50;78.70
50226;BME280;36113;50.742;6.432;2023-04-03T08:24:32;112741.81;;;-145.50;76.91
50226;BME280;36113;50.742;6.432;2023-04-03T08:26:57;112741.81;;;-145.50;76.17
50226;BME280;36113;50.742;6.432;2023-04-03T08:29:23;112741.81;;;-145.50;74.32
50226;BME280;36113;50.742;6.432;2023-04-03T08:31:49;112741.81;;;-145.50;74.02
50226;BME280;36113;50.742;6.432;2023-04-03T08:34:15;112741.81;;;-145.50;73.59
50226;BME280;36113;50.742;6.432;2023-04-03T08:36:41;112741.81;;;-145.50;72.38
50226;BME280;36113;50.742;6.432;2023-04-03T08:39:06;112741.81;;;-145.50;72.46
50226;BME280;36113;50.742;6.432;2023-04-03T08:41:37;112741.81;;;-145.50;71.78
50226;BME280;36113;50.742;6.432;2023-04-03T08:52:04;112741.81;;;-145.50;69.88
50226;BME280;36113;50.742;6.432;2023-04-03T08:54:33;112741.81;;;-145.50;70.97
50226;BME280;36113;50.742;6.432;2023-04-03T08:57:02;112741.81;;;-145.50;70.73
50226;BME280;36113;50.742;6.432;2023-04-03T08:59:33;112741.81;;;-145.50;68.47
50226;BME280;36113;50.742;6.432;2023-04-03T09:02:03;112741.81;;;-145.50;70.51
50226;BME280;36113;50.742;6.432;2023-04-03T09:04:32;112741.81;;;-145.50;71.07
50226;BME280;36113;50.742;6.432;2023-04-03T09:07:10;112741.81;;;-145.50;70.39
50226;BME280;36113;50.742;6.432;2023-04-03T09:09:41;112741.81;;;-145.50;70.16
50226;BME280;36113;50.742;6.432;2023-04-03T09:22:39;112741.81;;;-145.50;68.72
50226;BME280;36113;50.742;6.432;2023-04-03T09:25:29;112741.81;;;-145.50;70.06
50226;BME280;36113;50.742;6.432;2023-04-03T09:27:59;112741.81;;;-145.50;65.54
50226;BME280;36113;50.742;6.432;2023-04-03T09:30:26;112741.81;;;-145.50;67.43
50226;BME280;36113;50.742;6.432;2023-04-03T09:32:54;112741.81;;;-145.50;69.52
50226;BME280;36113;50.742;6.432;2023-04-03T09:37:50;112741.81;;;-145.50;66.94
50226;BME280;36113;50.742;6.432;2023-04-03T09:42:55;112741.81;;;-145.50;67.42
50226;BME280;36113;50.742;6.432;2023-04-03T09:45:30;112741.81;;;-145.50;68.31
50226;BME280;36113;50.742;6.432;2023-04-03T09:50:34;112741.81;;;-145.50;67.98
50226;BME280;36113;50.742;6.432;2023-04-03T09:53:05;112741.81;;;-145.50;66.96
50226;BME280;36113;50.742;6.432;2023-04-03T09:55:32;112741.81;;;-145.50;66.14
50226;BME280;36113;50.742;6.432;2023-04-03T09:58:00;112741.81;;;-145.50;66.34
50226;BME280;36113;50.742;6.432;2023-04-03T10:00:37;112741.81;;;-145.50;63.83
50226;BME280;36113;50.742;6.432;2023-04-03T10:03:04;112741.81;;;-145.50;65.06
50226;BME280;36113;50.742;6.432;2023-04-03T10:05:40;112741.81;;;-145.50;64.17
50226;BME280;36113;50.742;6.432;2023-04-03T10:10:45;112741.81;;;-145.50;60.73
50226;BME280;36113;50.742;6.432;2023-04-03T10:13:15;112741.81;;;-145.50;56.55
50226;BME280;36113;50.742;6.432;2023-04-03T10:15:50;112741.81;;;-145.50;58.28
50226;BME280;36113;50.742;6.432;2023-04-03T10:20:48;112741.81;;;-145.50;58.69
50226;BME280;36113;50.742;6.432;2023-04-03T10:23:26;112741.81;;;-145.50;56.33
50226;BME280;36113;50.742;6.432;2023-04-03T10:26:17;112741.81;;;-145.50;55.77
50226;BME280;36113;50.742;6.432;2023-04-03T10:29:20;112741.81;;;-145.50;56.42
50226;BME280;36113;50.742;6.432;2023-04-03T10:32:08;112741.81;;;-145.50;58.05
50226;BME280;36113;50.742;6.432;2023-04-03T10:34:42;112741.81;;;-145.50;56.64
50226;BME280;36113;50.742;6.432;2023-04-03T10:37:21;112741.81;;;-145.50;54.92
50226;BME280;36113;50.742;6.432;2023-04-03T10:40:25;112741.81;;;-145.50;56.14
50226;BME280;36113;50.742;6.432;2023-04-03T10:43:06;112741.81;;;-145.50;59.71
50226;BME280;36113;50.742;6.432;2023-04-03T10:51:53;112741.81;;;-145.50;57.70
50226;BME280;36113;50.742;6.432;2023-04-03T10:54:18;112741.81;;;-145.50;56.95
50226;BME280;36113;50.742;6.432;2023-04-03T10:56:53;112741.81;;;-145.50;50.10
50226;BME280;36113;50.742;6.432;2023-04-03T10:59:28;112741.81;;;-145.50;51.21
50226;BME280;36113;50.742;6.432;2023-04-03T11:02:41;112741.81;;;-145.50;52.40
50226;BME280;36113;50.742;6.432;2023-04-03T11:04:51;112741.81;;;-145.50;50.74
50226;BME280;36113;50.742;6.432;2023-04-03T11:07:22;112741.81;;;-145.50;48.30
50226;BME280;36113;50.742;6.432;2023-04-03T11:09:50;112741.81;;;-145.50;48.36
50226;BME280;36113;50.742;6.432;2023-04-03T11:12:38;112741.81;;;-145.50;45.54
50226;BME280;36113;50.742;6.432;2023-04-03T11:15:05;112741.81;;;-145.50;45.85
50226;BME280;36113;50.742;6.432;2023-04-03T11:17:40;112741.81;;;-145.50;45.51
50226;BME280;36113;50.742;6.432;2023-04-03T11:20:30;112741.81;;;-145.50;46.16
50226;BME280;36113;50.742;6.432;2023-04-03T11:23:04;112741.81;;;-145.50;46.15
50226;BME280;36113;50.742;6.432;2023-04-03T11:25:33;112741.81;;;-145.50;45.12
50226;BME280;36113;50.742;6.432;2023-04-03T11:28:04;112741.81;;;-145.50;44.29
50226;BME280;36113;50.742;6.432;2023-04-03T11:30:59;112741.81;;;-145.50;44.78
50226;BME280;36113;50.742;6.432;2023-04-03T11:36:28;112741.81;;;-145.50;46.05
50226;BME280;36113;50.742;6.432;2023-04-03T11:38:57;112741.81;;;-145.50;45.77
50226;BME280;36113;50.742;6.432;2023-04-03T11:41:28;112741.81;;;-145.50;43.82
50226;BME280;36113;50.742;6.432;2023-04-03T11:44:05;112741.81;;;-145.50;42.28
50226;BME280;36113;50.742;6.432;2023-04-03T11:46:55;112741.81;;;-145.50;40.39
50226;BME280;36113;50.742;6.432;2023-04-03T11:50:03;112741.81;;;-145.50;40.61
50226;BME280;36113;50.742;6.432;2023-04-03T11:52:55;112741.81;;;-145.50;39.92
50226;BME280;36113;50.742;6.432;2023-04-03T11:58:04;112741.81;;;-145.50;40.17
50226;BME280;36113;50.742;6.432;2023-04-03T12:00:49;112741.81;;;-145.50;41.58
50226;BME280;36113;50.742;6.432;2023-04-03T12:16:24;112741.81;;;-145.50;39.46
50226;BME280;36113;50.742;6.432;2023-04-03T12:21:21;112741.81;;;-145.50;41.24
50226;BME280;36113;50.742;6.432;2023-04-03T12:31:58;112741.81;;;-145.50;39.43
50226;BME280;36113;50.742;6.432;2023-04-03T12:34:46;112741.81;;;-145.50;38.89
50226;BME280;36113;50.742;6.432;2023-04-03T12:45:25;112741.81;;;-145.50;40.34
50226;BME280;36113;50.742;6.432;2023-04-03T12:47:53;112741.81;;;-145.50;39.54
50226;BME280;36113;50.742;6.432;2023-04-03T12:50:40;112741.81;;;-145.50;39.62
50226;BME280;36113;50.742;6.432;2023-04-03T12:53:16;112741.81;;;-145.50;38.33
50226;BME280;36113;50.742;6.432;2023-04-03T12:55:43;112741.81;;;-145.50;38.33
50226;BME280;36113;50.742;6.432;2023-04-03T12:58:17;112741.81;;;-145.50;38.88
50226;BME280;36113;50.742;6.432;2023-04-03T13:00:45;112741.81;;;-145.50;40.14
50226;BME280;36113;50.742;6.432;2023-04-03T13:03:23;112741.81;;;-145.50;39.82
50226;BME280;36113;50.742;6.432;2023-04-03T13:05:49;112741.81;;;-145.50;38.62
50226;BME280;36113;50.742;6.432;2023-04-03T13:08:17;112741.81;;;-145.50;39.04
50226;BME280;36113;50.742;6.432;2023-04-03T13:11:05;112741.81;;;-145.50;40.04
50226;BME280;36113;50.742;6.432;2023-04-03T13:13:35;112741.81;;;-145.50;39.53
50226;BME280;36113;50.742;6.432;2023-04-03T13:16:08;112741.81;;;-145.50;39.93
50226;BME280;36113;50.742;6.432;2023-04-03T13:18:36;112741.81;;;-145.50;39.46
50226;BME280;36113;50.742;6.432;2023-04-03T13:21:13;112741.81;;;-145.50;40.27
50226;BME280;36113;50.742;6.432;2023-04-03T13:23:43;112741.81;;;-145.50;39.35
50226;BME280;36113;50.742;6.432;2023-04-03T13:26:10;112741.81;;;-145.50;39.41
50226;BME280;36113;50.742;6.432;2023-04-03T13:28:36;112741.81;;;-145.50;39.98
50226;BME280;36113;50.742;6.432;2023-04-03T13:34:32;112741.81;;;-145.50;38.01
50226;BME280;36113;50.742;6.432;2023-04-03T13:36:34;112741.81;;;-145.50;38.24
50226;BME280;36113;50.742;6.432;2023-04-03T13:41:40;112741.81;;;-145.50;37.47
50226;BME280;36113;50.742;6.432;2023-04-03T13:46:47;112741.81;;;-145.50;37.70
50226;BME280;36113;50.742;6.432;2023-04-03T13:49:35;112741.81;;;-145.50;38.15
50226;BME280;36113;50.742;6.432;2023-04-03T13:52:22;112741.81;;;-145.50;37.49
50226;BME280;36113;50.742;6.432;2023-04-03T13:54:53;112741.81;;;-145.50;37.45
50226;BME280;36113;50.742;6.432;2023-04-03T13:57:19;112741.81;;;-145.50;38.27
50226;BME280;36113;50.742;6.432;2023-04-03T13:59:44;112741.81;;;-145.50;38.07
50226;BME280;36113;50.742;6.432;2023-04-03T14:04:47;112741.81;;;-145.50;37.68
50226;BME280;36113;50.742;6.432;2023-04-03T14:07:15;112741.81;;;-145.50;36.61
50226;BME280;36113;50.742;6.432;2023-04-03T14:09:41;112741.81;;;-145.50;36.53
50226;BME280;36113;50.742;6.432;2023-04-03T14:12:30;112741.81;;;-145.50;36.49
50226;BME280;36113;50.742;6.432;2023-04-03T14:14:56;112741.81;;;-145.50;36.07
50226;BME280;36113;50.742;6.432;2023-04-03T14:17:24;112741.81;;;-145.50;36.37
50226;BME280;36113;50.742;6.432;2023-04-03T14:19:51;112741.81;;;-145.50;37.47
50226;BME280;36113;50.742;6.432;2023-04-03T14:22:26;112741.81;;;-145.50;35.16
50226;BME280;36113;50.742;6.432;2023-04-03T14:24:51;112741.81;;;-145.50;35.97
50226;BME280;36113;50.742;6.432;2023-04-03T14:29:42;112741.81;;;-145.50;36.00
50226;BME280;36113;50.742;6.432;2023-04-03T14:32:11;112741.81;;;-145.50;35.37
50226;BME280;36113;50.742;6.432;2023-04-03T14:34:36;112741.81;;;-145.50;35.32
50226;BME280;36113;50.742;6.432;2023-04-03T14:37:02;112741.81;;;-145.50;35.85
50226;BME280;36113;50.742;6.432;2023-04-03T14:39:27;112741.81;;;-145.50;34.56
50226;BME280;36113;50.742;6.432;2023-04-03T14:41:53;112741.81;;;-145.50;34.28
50226;BME280;36113;50.742;6.432;2023-04-03T14:44:18;112741.81;;;-145.50;34.81
50226;BME280;36113;50.742;6.432;2023-04-03T14:46:44;112741.81;;;-145.50;34.41